sensor_id;sensor_type;location;lat;lon;timestamp;temperature;humidity
33903;DHT22;20194;50.950;5.346;2023-02-01T00:01:44;6.70;59.50
33903;DHT22;20194;50.950;5.346;2023-02-01T00:04:09;6.70;59.60
33903;DHT22;20194;50.950;5.346;2023-02-01T00:06:35;6.60;60.00
33903;DHT22;20194;50.950;5.346;2023-02-01T00:09:02;6.60;60.90
33903;DHT22;20194;50.950;5.346;2023-02-01T00:11:27;6.60;61.50
33903;DHT22;20194;50.950;5.346;2023-02-01T00:13:53;6.70;62.70
33903;DHT22;20194;50.950;5.346;2023-02-01T00:16:21;6.70;62.60
33903;DHT22;20194;50.950;5.346;2023-02-01T00:18:50;6.80;63.10
33903;DHT22;20194;50.950;5.346;2023-02-01T00:21:18;6.90;61.50
33903;DHT22;20194;50.950;5.346;2023-02-01T00:23:44;6.90;60.90
33903;DHT22;20194;50.950;5.346;2023-02-01T00:26:16;6.90;60.30
33903;DHT22;20194;50.950;5.346;2023-02-01T00:28:42;6.90;60.50
33903;DHT22;20194;50.950;5.346;2023-02-01T00:31:08;6.90;60.80
33903;DHT22;20194;50.950;5.346;2023-02-01T00:33:34;7.00;61.00
33903;DHT22;20194;50.950;5.346;2023-02-01T00:36:01;7.00;59.70
33903;DHT22;20194;50.950;5.346;2023-02-01T00:38:28;7.00;60.10
33903;DHT22;20194;50.950;5.346;2023-02-01T00:40:54;6.90;62.10
33903;DHT22;20194;50.950;5.346;2023-02-01T00:43:26;6.80;63.90
33903;DHT22;20194;50.950;5.346;2023-02-01T00:45:52;6.80;65.40
33903;DHT22;20194;50.950;5.346;2023-02-01T00:48:18;6.80;65.10
33903;DHT22;20194;50.950;5.346;2023-02-01T00:50:44;6.90;65.70
33903;DHT22;20194;50.950;5.346;2023-02-01T00:53:10;6.80;65.40
33903;DHT22;20194;50.950;5.346;2023-02-01T00:55:36;6.80;66.20
33903;DHT22;20194;50.950;5.346;2023-02-01T00:58:02;6.90;65.60
33903;DHT22;20194;50.950;5.346;2023-02-01T01:00:28;6.90;63.80
33903;DHT22;20194;50.950;5.346;2023-02-01T01:02:54;6.90;63.90
33903;DHT22;20194;50.950;5.346;2023-02-01T01:05:21;7.00;63.90
33903;DHT22;20194;50.950;5.346;2023-02-01T01:07:47;7.10;62.10
33903;DHT22;20194;50.950;5.346;2023-02-01T01:10:12;7.10;61.50
33903;DHT22;20194;50.950;5.346;2023-02-01T01:12:38;7.20;60.40
33903;DHT22;20194;50.950;5.346;2023-02-01T01:15:04;7.20;59.70
33903;DHT22;20194;50.950;5.346;2023-02-01T01:17:31;7.20;59.10
33903;DHT22;20194;50.950;5.346;2023-02-01T01:19:56;7.20;59.60
33903;DHT22;20194;50.950;5.346;2023-02-01T01:22:22;7.20;59.80
33903;DHT22;20194;50.950;5.346;2023-02-01T01:24:48;7.20;60.00
33903;DHT22;20194;50.950;5.346;2023-02-01T01:27:14;7.10;59.70
33903;DHT22;20194;50.950;5.346;2023-02-01T01:29:40;7.20;60.70
33903;DHT22;20194;50.950;5.346;2023-02-01T01:32:06;7.20;61.00
33903;DHT22;20194;50.950;5.346;2023-02-01T01:34:31;7.10;61.20
33903;DHT22;20194;50.950;5.346;2023-02-01T01:36:57;7.30;61.20
33903;DHT22;20194;50.950;5.346;2023-02-01T01:39:23;7.30;59.80
33903;DHT22;20194;50.950;5.346;2023-02-01T01:41:49;7.20;61.10
33903;DHT22;20194;50.950;5.346;2023-02-01T01:47:18;7.10;61.70
33903;DHT22;20194;50.950;5.346;2023-02-01T01:49:43;7.00;62.60
33903;DHT22;20194;50.950;5.346;2023-02-01T01:52:10;7.00;64.80
33903;DHT22;20194;50.950;5.346;2023-02-01T01:54:40;7.10;63.40
33903;DHT22;20194;50.950;5.346;2023-02-01T01:57:14;7.00;62.90
33903;DHT22;20194;50.950;5.346;2023-02-01T01:59:45;7.00;63.30
33903;DHT22;20194;50.950;5.346;2023-02-01T02:02:13;7.10;62.80
33903;DHT22;20194;50.950;5.346;2023-02-01T02:04:39;7.10;62.90
33903;DHT22;20194;50.950;5.346;2023-02-01T02:07:10;7.10;62.40
33903;DHT22;20194;50.950;5.346;2023-02-01T02:09:37;7.10;62.10
33903;DHT22;20194;50.950;5.346;2023-02-01T02:12:03;7.10;61.10
33903;DHT22;20194;50.950;5.346;2023-02-01T02:14:30;7.00;61.40
33903;DHT22;20194;50.950;5.346;2023-02-01T02:44:21;6.90;54.00
33903;DHT22;20194;50.950;5.346;2023-02-01T02:47:26;6.90;53.60
33903;DHT22;20194;50.950;5.346;2023-02-01T02:53:17;6.90;48.60
33903;DHT22;20194;50.950;5.346;2023-02-01T02:56:03;7.00;46.60
33903;DHT22;20194;50.950;5.346;2023-02-01T02:58:48;6.90;45.30
33903;DHT22;20194;50.950;5.346;2023-02-01T03:01:34;7.00;44.50
33903;DHT22;20194;50.950;5.346;2023-02-01T03:04:19;7.00;43.30
33903;DHT22;20194;50.950;5.346;2023-02-01T03:06:45;6.90;41.30
33903;DHT22;20194;50.950;5.346;2023-02-01T03:09:37;6.90;40.10
33903;DHT22;20194;50.950;5.346;2023-02-01T03:12:10;6.90;40.30
33903;DHT22;20194;50.950;5.346;2023-02-01T03:15:03;6.80;37.60
33903;DHT22;20194;50.950;5.346;2023-02-01T03:17:37;6.80;37.50
33903;DHT22;20194;50.950;5.346;2023-02-01T03:20:05;6.80;36.20
33903;DHT22;20194;50.950;5.346;2023-02-01T03:22:33;6.80;35.60
33903;DHT22;20194;50.950;5.346;2023-02-01T03:25:23;6.80;37.40
33903;DHT22;20194;50.950;5.346;2023-02-01T03:27:57;6.70;36.90
33903;DHT22;20194;50.950;5.346;2023-02-01T03:30:44;6.60;36.70
33903;DHT22;20194;50.950;5.346;2023-02-01T03:33:15;6.60;37.30
33903;DHT22;20194;50.950;5.346;2023-02-01T03:36:02;6.60;37.60
33903;DHT22;20194;50.950;5.346;2023-02-01T03:38:40;6.60;38.20
33903;DHT22;20194;50.950;5.346;2023-02-01T03:44:32;6.50;38.00
33903;DHT22;20194;50.950;5.346;2023-02-01T03:47:16;6.50;35.90
33903;DHT22;20194;50.950;5.346;2023-02-01T03:49:59;6.40;37.80
33903;DHT22;20194;50.950;5.346;2023-02-01T03:52:32;6.40;39.30
33903;DHT22;20194;50.950;5.346;2023-02-01T03:55:00;6.50;38.70
33903;DHT22;20194;50.950;5.346;2023-02-01T03:57:33;6.40;37.80
33903;DHT22;20194;50.950;5.346;2023-02-01T04:02:40;6.50;36.20
33903;DHT22;20194;50.950;5.346;2023-02-01T04:05:06;6.50;35.10
33903;DHT22;20194;50.950;5.346;2023-02-01T04:07:32;6.40;35.80
33903;DHT22;20194;50.950;5.346;2023-02-01T04:09:58;6.40;35.50
33903;DHT22;20194;50.950;5.346;2023-02-01T04:12:24;6.40;36.10
33903;DHT22;20194;50.950;5.346;2023-02-01T04:14:49;6.30;35.10
33903;DHT22;20194;50.950;5.346;2023-02-01T04:17:15;6.30;35.50
33903;DHT22;20194;50.950;5.346;2023-02-01T04:19:41;6.30;36.90
33903;DHT22;20194;50.950;5.346;2023-02-01T04:22:07;6.30;35.70
33903;DHT22;20194;50.950;5.346;2023-02-01T04:24:33;6.30;36.50
33903;DHT22;20194;50.950;5.346;2023-02-01T04:26:58;6.30;35.00
33903;DHT22;20194;50.950;5.346;2023-02-01T04:29:24;6.30;35.60
33903;DHT22;20194;50.950;5.346;2023-02-01T04:31:50;6.30;35.60
33903;DHT22;20194;50.950;5.346;2023-02-01T04:34:15;6.30;34.20
33903;DHT22;20194;50.950;5.346;2023-02-01T04:36:41;6.40;35.50
33903;DHT22;20194;50.950;5.346;2023-02-01T04:39:09;6.30;35.40
33903;DHT22;20194;50.950;5.346;2023-02-01T04:41:35;6.40;34.90
33903;DHT22;20194;50.950;5.346;2023-02-01T04:44:00;6.20;35.40
33903;DHT22;20194;50.950;5.346;2023-02-01T04:46:27;6.20;37.60
33903;DHT22;20194;50.950;5.346;2023-02-01T04:48:52;6.10;38.50
33903;DHT22;20194;50.950;5.346;2023-02-01T04:51:18;6.20;37.80
33903;DHT22;20194;50.950;5.346;2023-02-01T04:53:44;6.20;37.20
33903;DHT22;20194;50.950;5.346;2023-02-01T04:56:10;6.30;36.80
33903;DHT22;20194;50.950;5.346;2023-02-01T04:58:37;6.20;37.10
33903;DHT22;20194;50.950;5.346;2023-02-01T05:01:03;6.20;37.60
33903;DHT22;20194;50.950;5.346;2023-02-01T05:03:31;6.10;38.30
33903;DHT22;20194;50.950;5.346;2023-02-01T05:05:57;6.10;37.90
33903;DHT22;20194;50.950;5.346;2023-02-01T05:08:22;6.00;38.90
33903;DHT22;20194;50.950;5.346;2023-02-01T05:10:50;6.00;39.80
33903;DHT22;20194;50.950;5.346;2023-02-01T05:13:16;6.00;40.40
33903;DHT22;20194;50.950;5.346;2023-02-01T05:16:00;6.00;39.90
33903;DHT22;20194;50.950;5.346;2023-02-01T05:18:26;6.00;39.60
33903;DHT22;20194;50.950;5.346;2023-02-01T05:20:51;6.00;39.90
33903;DHT22;20194;50.950;5.346;2023-02-01T05:23:17;6.20;39.20
33903;DHT22;20194;50.950;5.346;2023-02-01T05:25:43;6.10;38.60
33903;DHT22;20194;50.950;5.346;2023-02-01T05:28:09;6.10;39.20
33903;DHT22;20194;50.950;5.346;2023-02-01T05:30:35;6.10;39.20
33903;DHT22;20194;50.950;5.346;2023-02-01T05:33:01;6.10;38.90
33903;DHT22;20194;50.950;5.346;2023-02-01T05:35:27;6.10;39.30
33903;DHT22;20194;50.950;5.346;2023-02-01T05:37:53;6.10;39.60
33903;DHT22;20194;50.950;5.346;2023-02-01T05:40:20;6.00;39.90
33903;DHT22;20194;50.950;5.346;2023-02-01T05:42:46;6.10;39.90
33903;DHT22;20194;50.950;5.346;2023-02-01T05:45:11;6.00;41.00
33903;DHT22;20194;50.950;5.346;2023-02-01T05:47:37;6.00;41.30
33903;DHT22;20194;50.950;5.346;2023-02-01T05:50:04;6.00;41.90
33903;DHT22;20194;50.950;5.346;2023-02-01T05:52:30;6.00;41.30
33903;DHT22;20194;50.950;5.346;2023-02-01T05:54:55;6.00;41.00
33903;DHT22;20194;50.950;5.346;2023-02-01T05:57:21;6.00;40.40
33903;DHT22;20194;50.950;5.346;2023-02-01T05:59:47;5.90;40.90
33903;DHT22;20194;50.950;5.346;2023-02-01T06:02:14;5.90;41.20
33903;DHT22;20194;50.950;5.346;2023-02-01T06:04:40;5.90;40.80
33903;DHT22;20194;50.950;5.346;2023-02-01T06:07:07;5.80;42.20
33903;DHT22;20194;50.950;5.346;2023-02-01T06:09:35;5.90;42.70
33903;DHT22;20194;50.950;5.346;2023-02-01T06:12:01;5.80;43.00
33903;DHT22;20194;50.950;5.346;2023-02-01T06:14:27;5.80;43.90
33903;DHT22;20194;50.950;5.346;2023-02-01T06:16:54;5.80;43.30
33903;DHT22;20194;50.950;5.346;2023-02-01T06:19:21;5.80;43.00
33903;DHT22;20194;50.950;5.346;2023-02-01T06:21:46;5.80;43.20
33903;DHT22;20194;50.950;5.346;2023-02-01T06:24:12;5.70;42.80
33903;DHT22;20194;50.950;5.346;2023-02-01T06:26:38;5.70;43.40
33903;DHT22;20194;50.950;5.346;2023-02-01T06:29:14;5.60;45.20
33903;DHT22;20194;50.950;5.346;2023-02-01T06:31:40;5.60;44.20
33903;DHT22;20194;50.950;5.346;2023-02-01T06:34:07;5.50;46.50
33903;DHT22;20194;50.950;5.346;2023-02-01T06:36:33;5.60;47.00
33903;DHT22;20194;50.950;5.346;2023-02-01T06:38:59;5.60;46.10
33903;DHT22;20194;50.950;5.346;2023-02-01T06:41:25;5.60;46.00
33903;DHT22;20194;50.950;5.346;2023-02-01T06:43:51;5.60;45.20
33903;DHT22;20194;50.950;5.346;2023-02-01T06:46:18;5.60;45.30
33903;DHT22;20194;50.950;5.346;2023-02-01T06:48:43;5.70;46.20
33903;DHT22;20194;50.950;5.346;2023-02-01T06:51:25;5.70;44.30
33903;DHT22;20194;50.950;5.346;2023-02-01T06:53:51;5.70;44.20
33903;DHT22;20194;50.950;5.346;2023-02-01T06:56:17;5.70;43.90
33903;DHT22;20194;50.950;5.346;2023-02-01T06:58:44;5.60;45.60
33903;DHT22;20194;50.950;5.346;2023-02-01T07:01:10;5.60;45.90
33903;DHT22;20194;50.950;5.346;2023-02-01T07:03:36;5.50;46.60
33903;DHT22;20194;50.950;5.346;2023-02-01T07:06:03;5.50;46.80
33903;DHT22;20194;50.950;5.346;2023-02-01T07:08:31;5.50;46.90
33903;DHT22;20194;50.950;5.346;2023-02-01T07:11:08;5.60;46.30
33903;DHT22;20194;50.950;5.346;2023-02-01T07:13:34;5.60;46.50
33903;DHT22;20194;50.950;5.346;2023-02-01T07:16:02;5.50;45.60
33903;DHT22;20194;50.950;5.346;2023-02-01T07:18:29;5.50;46.00
33903;DHT22;20194;50.950;5.346;2023-02-01T07:20:55;5.50;46.70
33903;DHT22;20194;50.950;5.346;2023-02-01T07:23:21;5.50;46.20
33903;DHT22;20194;50.950;5.346;2023-02-01T07:25:47;5.50;47.40
33903;DHT22;20194;50.950;5.346;2023-02-01T07:28:13;5.50;45.40
33903;DHT22;20194;50.950;5.346;2023-02-01T07:30:40;5.50;46.80
33903;DHT22;20194;50.950;5.346;2023-02-01T07:33:06;5.50;47.00
33903;DHT22;20194;50.950;5.346;2023-02-01T07:35:32;5.50;46.20
33903;DHT22;20194;50.950;5.346;2023-02-01T07:37:58;5.50;46.70
33903;DHT22;20194;50.950;5.346;2023-02-01T07:40:25;5.50;46.40
33903;DHT22;20194;50.950;5.346;2023-02-01T07:42:56;5.50;46.40
33903;DHT22;20194;50.950;5.346;2023-02-01T07:45:23;5.50;46.60
33903;DHT22;20194;50.950;5.346;2023-02-01T07:47:50;5.40;47.40
33903;DHT22;20194;50.950;5.346;2023-02-01T07:50:16;5.50;46.30
33903;DHT22;20194;50.950;5.346;2023-02-01T07:52:42;5.50;46.50
33903;DHT22;20194;50.950;5.346;2023-02-01T07:55:08;5.50;47.50
33903;DHT22;20194;50.950;5.346;2023-02-01T07:57:34;5.60;46.60
33903;DHT22;20194;50.950;5.346;2023-02-01T08:00:00;5.50;46.30
33903;DHT22;20194;50.950;5.346;2023-02-01T08:02:44;5.50;46.30
33903;DHT22;20194;50.950;5.346;2023-02-01T08:05:09;5.50;48.00
33903;DHT22;20194;50.950;5.346;2023-02-01T08:07:36;5.40;47.60
33903;DHT22;20194;50.950;5.346;2023-02-01T08:10:01;5.40;48.00
33903;DHT22;20194;50.950;5.346;2023-02-01T08:12:27;5.40;48.80
33903;DHT22;20194;50.950;5.346;2023-02-01T08:14:53;5.40;47.90
33903;DHT22;20194;50.950;5.346;2023-02-01T08:17:19;5.50;48.00
33903;DHT22;20194;50.950;5.346;2023-02-01T08:19:45;5.50;47.90
33903;DHT22;20194;50.950;5.346;2023-02-01T08:22:11;5.50;48.80
33903;DHT22;20194;50.950;5.346;2023-02-01T08:24:37;5.40;49.20
33903;DHT22;20194;50.950;5.346;2023-02-01T08:27:05;5.40;50.10
33903;DHT22;20194;50.950;5.346;2023-02-01T08:29:31;5.50;49.20
33903;DHT22;20194;50.950;5.346;2023-02-01T08:31:57;5.60;49.90
33903;DHT22;20194;50.950;5.346;2023-02-01T08:34:23;5.70;49.60
33903;DHT22;20194;50.950;5.346;2023-02-01T08:36:48;5.80;49.80
33903;DHT22;20194;50.950;5.346;2023-02-01T08:39:14;5.80;49.40
33903;DHT22;20194;50.950;5.346;2023-02-01T08:41:40;5.90;48.90
33903;DHT22;20194;50.950;5.346;2023-02-01T08:44:08;5.90;48.40
33903;DHT22;20194;50.950;5.346;2023-02-01T08:46:34;5.90;48.80
33903;DHT22;20194;50.950;5.346;2023-02-01T08:49:00;6.00;49.00
33903;DHT22;20194;50.950;5.346;2023-02-01T08:51:25;6.00;49.30
33903;DHT22;20194;50.950;5.346;2023-02-01T08:53:51;6.10;47.40
33903;DHT22;20194;50.950;5.346;2023-02-01T08:56:18;6.10;47.50
33903;DHT22;20194;50.950;5.346;2023-02-01T08:58:45;6.10;47.80
33903;DHT22;20194;50.950;5.346;2023-02-01T09:01:13;6.10;46.70
33903;DHT22;20194;50.950;5.346;2023-02-01T09:03:40;6.20;47.30
33903;DHT22;20194;50.950;5.346;2023-02-01T09:06:09;6.20;46.40
33903;DHT22;20194;50.950;5.346;2023-02-01T09:08:35;6.30;46.10
33903;DHT22;20194;50.950;5.346;2023-02-01T09:11:03;6.30;46.30
33903;DHT22;20194;50.950;5.346;2023-02-01T09:13:29;6.30;45.40
33903;DHT22;20194;50.950;5.346;2023-02-01T09:15:55;6.30;44.70
33903;DHT22;20194;50.950;5.346;2023-02-01T09:18:21;6.30;45.00
33903;DHT22;20194;50.950;5.346;2023-02-01T09:20:47;6.30;45.00
33903;DHT22;20194;50.950;5.346;2023-02-01T09:23:12;6.40;45.60
33903;DHT22;20194;50.950;5.346;2023-02-01T09:25:38;6.40;43.30
33903;DHT22;20194;50.950;5.346;2023-02-01T09:28:05;6.50;42.10
33903;DHT22;20194;50.950;5.346;2023-02-01T09:30:32;6.60;42.40
33903;DHT22;20194;50.950;5.346;2023-02-01T09:32:58;6.60;42.20
33903;DHT22;20194;50.950;5.346;2023-02-01T09:35:24;6.70;41.70
33903;DHT22;20194;50.950;5.346;2023-02-01T09:37:52;6.70;40.50
33903;DHT22;20194;50.950;5.346;2023-02-01T09:40:18;6.70;40.20
33903;DHT22;20194;50.950;5.346;2023-02-01T09:48:34;6.80;39.70
33903;DHT22;20194;50.950;5.346;2023-02-01T09:51:04;6.90;39.10
33903;DHT22;20194;50.950;5.346;2023-02-01T09:53:38;7.00;37.90
33903;DHT22;20194;50.950;5.346;2023-02-01T09:56:12;7.20;36.90
33903;DHT22;20194;50.950;5.346;2023-02-01T09:58:44;7.40;33.00
33903;DHT22;20194;50.950;5.346;2023-02-01T10:01:22;7.50;32.80
33903;DHT22;20194;50.950;5.346;2023-02-01T10:03:49;7.70;31.60
33903;DHT22;20194;50.950;5.346;2023-02-01T10:06:36;7.80;27.90
33903;DHT22;20194;50.950;5.346;2023-02-01T10:18:30;8.50;21.60
33903;DHT22;20194;50.950;5.346;2023-02-01T10:24:15;8.50;20.40
33903;DHT22;20194;50.950;5.346;2023-02-01T10:26:47;8.70;21.20
33903;DHT22;20194;50.950;5.346;2023-02-01T10:29:20;8.70;16.90
33903;DHT22;20194;50.950;5.346;2023-02-01T10:31:47;8.80;15.70
33903;DHT22;20194;50.950;5.346;2023-02-01T10:34:30;8.90;15.80
33903;DHT22;20194;50.950;5.346;2023-02-01T10:37:28;9.00;14.60
33903;DHT22;20194;50.950;5.346;2023-02-01T10:39:56;9.10;12.60
33903;DHT22;20194;50.950;5.346;2023-02-01T10:42:26;9.20;11.10
33903;DHT22;20194;50.950;5.346;2023-02-01T10:44:54;9.30;12.90
33903;DHT22;20194;50.950;5.346;2023-02-01T10:47:21;9.50;3.70
33903;DHT22;20194;50.950;5.346;2023-02-01T10:52:40;9.50;5.20
33903;DHT22;20194;50.950;5.346;2023-02-01T10:58:05;9.80;1.20
33903;DHT22;20194;50.950;5.346;2023-02-01T11:00:48;9.70;1.00
33903;DHT22;20194;50.950;5.346;2023-02-01T11:03:41;9.80;1.00
33903;DHT22;20194;50.950;5.346;2023-02-01T11:06:34;9.90;1.00
33903;DHT22;20194;50.950;5.346;2023-02-01T11:14:41;9.90;1.00
33903;DHT22;20194;50.950;5.346;2023-02-01T11:17:34;10.00;1.00
33903;DHT22;20194;50.950;5.346;2023-02-01T11:20:04;9.80;1.00
33903;DHT22;20194;50.950;5.346;2023-02-01T11:22:31;9.80;1.00
33903;DHT22;20194;50.950;5.346;2023-02-01T11:24:58;9.90;1.00
33903;DHT22;20194;50.950;5.346;2023-02-01T11:27:26;9.90;1.00
33903;DHT22;20194;50.950;5.346;2023-02-01T11:29:55;9.80;1.00
33903;DHT22;20194;50.950;5.346;2023-02-01T11:32:23;9.80;1.00
33903;DHT22;20194;50.950;5.346;2023-02-01T11:34:55;9.80;1.00
33903;DHT22;20194;50.950;5.346;2023-02-01T11:37:37;9.80;1.00
33903;DHT22;20194;50.950;5.346;2023-02-01T11:40:25;10.00;1.00
33903;DHT22;20194;50.950;5.346;2023-02-01T11:43:08;9.90;1.00
33903;DHT22;20194;50.950;5.346;2023-02-01T11:45:38;9.90;1.00
33903;DHT22;20194;50.950;5.346;2023-02-01T11:48:09;10.00;1.00
33903;DHT22;20194;50.950;5.346;2023-02-01T12:10:31;9.40;1.00
33903;DHT22;20194;50.950;5.346;2023-02-01T12:26:44;9.20;1.00
33903;DHT22;20194;50.950;5.346;2023-02-01T12:37:45;9.20;1.00
33903;DHT22;20194;50.950;5.346;2023-02-01T12:40:31;9.20;1.00
33903;DHT22;20194;50.950;5.346;2023-02-01T12:45:46;9.10;1.00
33903;DHT22;20194;50.950;5.346;2023-02-01T12:51:23;9.10;1.00
33903;DHT22;20194;50.950;5.346;2023-02-01T12:57:06;9.10;1.00
33903;DHT22;20194;50.950;5.346;2023-02-01T12:59:47;9.10;1.00
33903;DHT22;20194;50.950;5.346;2023-02-01T13:02:40;9.10;1.00
33903;DHT22;20194;50.950;5.346;2023-02-01T13:05:23;9.10;1.00
33903;DHT22;20194;50.950;5.346;2023-02-01T13:08:01;9.10;1.00
33903;DHT22;20194;50.950;5.346;2023-02-01T13:10:51;9.10;1.00
33903;DHT22;20194;50.950;5.346;2023-02-01T13:13:48;9.10;1.00
33903;DHT22;20194;50.950;5.346;2023-02-01T13:16:24;9.10;1.00
33903;DHT22;20194;50.950;5.346;2023-02-01T13:19:02;9.00;1.00
33903;DHT22;20194;50.950;5.346;2023-02-01T13:21:34;9.10;1.00
33903;DHT22;20194;50.950;5.346;2023-02-01T13:24:02;9.10;1.00
33903;DHT22;20194;50.950;5.346;2023-02-01T13:26:29;9.10;1.00
33903;DHT22;20194;50.950;5.346;2023-02-01T13:29:03;9.10;1.00
33903;DHT22;20194;50.950;5.346;2023-02-01T13:37:39;9.10;1.00
33903;DHT22;20194;50.950;5.346;2023-02-01T13:43:02;9.10;1.00
33903;DHT22;20194;50.950;5.346;2023-02-01T13:45:33;9.10;1.00
33903;DHT22;20194;50.950;5.346;2023-02-01T13:48:02;9.10;1.00
33903;DHT22;20194;50.950;5.346;2023-02-01T13:50:37;9.10;1.00
33903;DHT22;20194;50.950;5.346;2023-02-01T13:55:45;9.10;1.00
33903;DHT22;20194;50.950;5.346;2023-02-01T13:58:20;9.20;1.00
33903;DHT22;20194;50.950;5.346;2023-02-01T14:00:48;9.20;1.00
33903;DHT22;20194;50.950;5.346;2023-02-01T14:03:46;9.20;1.00
33903;DHT22;20194;50.950;5.346;2023-02-01T14:06:34;9.20;1.00
33903;DHT22;20194;50.950;5.346;2023-02-01T14:11:48;9.20;1.00
33903;DHT22;20194;50.950;5.346;2023-02-01T14:16:59;9.30;1.00
33903;DHT22;20194;50.950;5.346;2023-02-01T14:19:28;9.30;1.00
33903;DHT22;20194;50.950;5.346;2023-02-01T14:21:56;9.20;1.00
33903;DHT22;20194;50.950;5.346;2023-02-01T14:24:27;9.30;1.00
33903;DHT22;20194;50.950;5.346;2023-02-01T14:26:57;9.20;1.00
33903;DHT22;20194;50.950;5.346;2023-02-01T14:29:31;9.20;1.00
33903;DHT22;20194;50.950;5.346;2023-02-01T14:32:01;9.30;1.00
33903;DHT22;20194;50.950;5.346;2023-02-01T14:34:35;9.30;1.00
33903;DHT22;20194;50.950;5.346;2023-02-01T14:37:24;9.30;1.00
33903;DHT22;20194;50.950;5.346;2023-02-01T14:44:48;9.40;1.00
33903;DHT22;20194;50.950;5.346;2023-02-01T14:52:36;9.40;1.00
33903;DHT22;20194;50.950;5.346;2023-02-01T14:55:21;9.40;1.00
33903;DHT22;20194;50.950;5.346;2023-02-01T14:57:50;9.40;1.00
33903;DHT22;20194;50.950;5.346;2023-02-01T15:02:48;9.40;1.00
33903;DHT22;20194;50.950;5.346;2023-02-01T15:05:28;9.40;1.00
33903;DHT22;20194;50.950;5.346;2023-02-01T15:07:58;9.30;1.00
33903;DHT22;20194;50.950;5.346;2023-02-01T15:10:26;9.30;1.00
33903;DHT22;20194;50.950;5.346;2023-02-01T15:12:53;9.30;1.00
33903;DHT22;20194;50.950;5.346;2023-02-01T15:15:21;9.30;1.00
33903;DHT22;20194;50.950;5.346;2023-02-01T15:17:58;9.30;1.00
33903;DHT22;20194;50.950;5.346;2023-02-01T15:20:30;9.30;1.00
33903;DHT22;20194;50.950;5.346;2023-02-01T15:23:01;9.30;1.00
33903;DHT22;20194;50.950;5.346;2023-02-01T15:25:32;9.30;1.00
33903;DHT22;20194;50.950;5.346;2023-02-01T15:28:00;9.30;1.00
33903;DHT22;20194;50.950;5.346;2023-02-01T15:30:28;9.30;2.10
33903;DHT22;20194;50.950;5.346;2023-02-01T15:35:47;9.30;3.00
33903;DHT22;20194;50.950;5.346;2023-02-01T15:43:36;9.30;3.00
33903;DHT22;20194;50.950;5.346;2023-02-01T15:46:06;9.30;5.60
33903;DHT22;20194;50.950;5.346;2023-02-01T15:48:40;9.20;2.50
33903;DHT22;20194;50.950;5.346;2023-02-01T15:51:12;9.20;5.20
33903;DHT22;20194;50.950;5.346;2023-02-01T15:53:44;9.10;5.80
33903;DHT22;20194;50.950;5.346;2023-02-01T15:56:10;9.20;5.60
33903;DHT22;20194;50.950;5.346;2023-02-01T15:58:36;9.20;8.00
33903;DHT22;20194;50.950;5.346;2023-02-01T16:01:04;9.10;8.00
33903;DHT22;20194;50.950;5.346;2023-02-01T16:03:43;9.00;13.90
33903;DHT22;20194;50.950;5.346;2023-02-01T16:06:26;9.00;13.00
33903;DHT22;20194;50.950;5.346;2023-02-01T16:09:11;9.00;14.90
33903;DHT22;20194;50.950;5.346;2023-02-01T16:11:49;8.90;17.10
33903;DHT22;20194;50.950;5.346;2023-02-01T16:14:17;8.80;18.10
33903;DHT22;20194;50.950;5.346;2023-02-01T16:16:43;8.80;17.70
33903;DHT22;20194;50.950;5.346;2023-02-01T16:19:09;8.90;20.70
33903;DHT22;20194;50.950;5.346;2023-02-01T16:21:35;8.80;18.00
33903;DHT22;20194;50.950;5.346;2023-02-01T16:24:01;8.90;17.90
33903;DHT22;20194;50.950;5.346;2023-02-01T16:26:30;8.80;17.50
33903;DHT22;20194;50.950;5.346;2023-02-01T16:28:57;8.80;16.60
33903;DHT22;20194;50.950;5.346;2023-02-01T16:31:26;8.80;17.90
33903;DHT22;20194;50.950;5.346;2023-02-01T16:33:52;8.90;16.80
33903;DHT22;20194;50.950;5.346;2023-02-01T16:36:19;8.90;16.60
33903;DHT22;20194;50.950;5.346;2023-02-01T16:38:46;8.90;15.70
33903;DHT22;20194;50.950;5.346;2023-02-01T16:41:17;8.90;16.00
33903;DHT22;20194;50.950;5.346;2023-02-01T16:43:43;8.90;15.40
33903;DHT22;20194;50.950;5.346;2023-02-01T16:46:17;8.90;15.60
33903;DHT22;20194;50.950;5.346;2023-02-01T16:48:52;8.80;14.40
33903;DHT22;20194;50.950;5.346;2023-02-01T16:51:19;8.80;17.20
33903;DHT22;20194;50.950;5.346;2023-02-01T16:53:45;8.70;17.90
33903;DHT22;20194;50.950;5.346;2023-02-01T16:56:16;8.70;19.90
33903;DHT22;20194;50.950;5.346;2023-02-01T16:58:43;8.80;22.00
33903;DHT22;20194;50.950;5.346;2023-02-01T17:01:11;8.70;19.40
33903;DHT22;20194;50.950;5.346;2023-02-01T17:03:38;8.70;20.10
33903;DHT22;20194;50.950;5.346;2023-02-01T17:06:04;8.70;18.90
33903;DHT22;20194;50.950;5.346;2023-02-01T17:08:34;8.70;21.40
33903;DHT22;20194;50.950;5.346;2023-02-01T17:11:00;8.80;18.60
33903;DHT22;20194;50.950;5.346;2023-02-01T17:13:26;8.80;19.00
33903;DHT22;20194;50.950;5.346;2023-02-01T17:16:02;8.70;20.50
33903;DHT22;20194;50.950;5.346;2023-02-01T17:18:31;8.70;20.90
33903;DHT22;20194;50.950;5.346;2023-02-01T17:20:58;8.60;22.00
33903;DHT22;20194;50.950;5.346;2023-02-01T17:23:25;8.70;19.70
33903;DHT22;20194;50.950;5.346;2023-02-01T17:25:51;8.70;18.40
33903;DHT22;20194;50.950;5.346;2023-02-01T17:28:18;8.70;18.90
33903;DHT22;20194;50.950;5.346;2023-02-01T17:30:43;8.60;19.90
33903;DHT22;20194;50.950;5.346;2023-02-01T17:33:36;8.70;19.30
33903;DHT22;20194;50.950;5.346;2023-02-01T17:36:03;8.70;19.60
33903;DHT22;20194;50.950;5.346;2023-02-01T17:38:30;8.70;19.60
33903;DHT22;20194;50.950;5.346;2023-02-01T17:40:56;8.70;19.10
33903;DHT22;20194;50.950;5.346;2023-02-01T17:43:24;8.70;19.60
33903;DHT22;20194;50.950;5.346;2023-02-01T17:48:36;8.60;19.70
33903;DHT22;20194;50.950;5.346;2023-02-01T17:51:02;8.60;19.30
33903;DHT22;20194;50.950;5.346;2023-02-01T17:53:29;8.60;21.40
33903;DHT22;20194;50.950;5.346;2023-02-01T17:55:55;8.60;21.00
33903;DHT22;20194;50.950;5.346;2023-02-01T17:58:23;8.50;22.10
33903;DHT22;20194;50.950;5.346;2023-02-01T18:00:49;8.50;23.40
33903;DHT22;20194;50.950;5.346;2023-02-01T18:03:27;8.50;23.10
33903;DHT22;20194;50.950;5.346;2023-02-01T18:05:55;8.50;25.30
33903;DHT22;20194;50.950;5.346;2023-02-01T18:08:25;8.50;25.20
33903;DHT22;20194;50.950;5.346;2023-02-01T18:10:55;8.50;25.30
33903;DHT22;20194;50.950;5.346;2023-02-01T18:13:24;8.50;26.30
33903;DHT22;20194;50.950;5.346;2023-02-01T18:15:50;8.50;25.90
33903;DHT22;20194;50.950;5.346;2023-02-01T18:18:15;8.60;24.70
33903;DHT22;20194;50.950;5.346;2023-02-01T18:20:43;8.50;24.60
33903;DHT22;20194;50.950;5.346;2023-02-01T18:23:18;8.50;24.90
33903;DHT22;20194;50.950;5.346;2023-02-01T18:25:45;8.50;25.50
33903;DHT22;20194;50.950;5.346;2023-02-01T18:28:12;8.50;25.40
33903;DHT22;20194;50.950;5.346;2023-02-01T18:30:41;8.50;24.60
33903;DHT22;20194;50.950;5.346;2023-02-01T18:33:16;8.60;23.80
33903;DHT22;20194;50.950;5.346;2023-02-01T18:35:42;8.70;24.30
33903;DHT22;20194;50.950;5.346;2023-02-01T18:38:09;8.60;24.40
33903;DHT22;20194;50.950;5.346;2023-02-01T18:40:39;8.60;25.10
33903;DHT22;20194;50.950;5.346;2023-02-01T18:43:08;8.60;25.40
33903;DHT22;20194;50.950;5.346;2023-02-01T18:45:36;8.60;24.60
33903;DHT22;20194;50.950;5.346;2023-02-01T18:48:04;8.50;25.70